Time;durP1;ratioP1;P1;durP2;ratioP2;P2;SDS_P1;SDS_P2;PMS_P1;PMS_P2;Temp;Humidity;BMP_temperature;BMP_pressure;BME280_temperature;BME280_humidity;BME280_pressure;Samples;Min_cycle;Max_cycle;Signal;HPM_P1;HPM_P2
2021/03/17 00:00:58;;;;;;;4.53;3.20;;;13.20;71.90;;;;;;5124070;28;20911;-35
2021/03/17 00:03:28;;;;;;;3.20;3.00;;;13.10;68.20;;;;;;5124260;28;20538;-36
2021/03/17 00:05:58;;;;;;;3.03;2.73;;;13.00;68.50;;;;;;5122434;28;20465;-36
2021/03/17 00:08:31;;;;;;;3.87;2.67;;;13.00;67.60;;;;;;5116432;28;20606;-36
2021/03/17 00:11:01;;;;;;;4.17;3.77;;;12.90;66.70;;;;;;5123623;28;20664;-36
2021/03/17 00:13:32;;;;;;;3.50;3.17;;;12.80;68.10;;;;;;5123758;28;20493;-36
2021/03/17 00:16:03;;;;;;;2.90;2.70;;;12.90;66.70;;;;;;5118756;28;20465;-35
2021/03/17 00:18:33;;;;;;;3.27;2.67;;;13.00;68.30;;;;;;5123954;28;20567;-36
2021/03/17 00:21:03;;;;;;;3.00;2.70;;;13.10;69.10;;;;;;5121169;28;20533;-35
2021/03/17 00:23:33;;;;;;;3.17;2.97;;;13.00;66.00;;;;;;5124508;28;20453;-35
2021/03/17 00:26:03;;;;;;;4.20;2.63;;;13.20;65.60;;;;;;5117135;28;20449;-34
2021/03/17 00:28:33;;;;;;;2.40;2.20;;;13.10;68.80;;;;;;5123876;28;20445;-35
2021/03/17 00:31:04;;;;;;;2.57;2.07;;;13.00;65.80;;;;;;5123849;28;20945;-36
2021/03/17 00:33:35;;;;;;;2.97;2.37;;;12.90;62.30;;;;;;5123430;28;20800;-35
2021/03/17 00:36:05;;;;;;;2.67;2.47;;;12.90;65.00;;;;;;5124020;28;20452;-35
2021/03/17 00:38:35;;;;;;;4.07;2.97;;;12.80;65.90;;;;;;5123744;28;20865;-35
2021/03/17 00:41:06;;;;;;;2.93;2.70;;;12.90;68.10;;;;;;5118363;28;20464;-35
2021/03/17 00:43:36;;;;;;;4.40;3.37;;;12.80;69.00;;;;;;5124574;28;20443;-36
2021/03/17 00:46:07;;;;;;;5.20;2.87;;;12.70;67.80;;;;;;5122988;28;20450;-35
2021/03/17 00:48:38;;;;;;;3.77;2.93;;;12.60;67.50;;;;;;5124022;28;20449;-35
2021/03/17 00:51:08;;;;;;;3.00;2.60;;;12.40;70.20;;;;;;5122850;28;20457;-35
2021/03/17 00:53:38;;;;;;;4.53;3.37;;;12.40;70.70;;;;;;5128759;27;20451;-35
2021/03/17 00:56:08;;;;;;;4.07;3.67;;;12.40;72.80;;;;;;5127321;27;20448;-34
2021/03/17 00:58:38;;;;;;;4.63;3.20;;;12.30;70.80;;;;;;5122597;28;20501;-35
2021/03/17 01:01:09;;;;;;;4.73;3.20;;;12.30;68.70;;;;;;5122670;28;20456;-35
2021/03/17 01:03:39;;;;;;;3.33;2.90;;;12.40;66.70;;;;;;5123215;28;20471;-35
2021/03/17 01:06:11;;;;;;;4.93;3.37;;;12.20;70.00;;;;;;5123186;28;20453;-35
2021/03/17 01:08:41;;;;;;;3.60;2.70;;;12.00;70.90;;;;;;5122079;28;20448;-35
2021/03/17 01:11:11;;;;;;;2.77;2.50;;;12.10;71.30;;;;;;5121814;28;20459;-33
2021/03/17 01:13:42;;;;;;;3.47;3.17;;;12.00;72.00;;;;;;5124007;28;20443;-35
2021/03/17 01:16:13;;;;;;;4.10;3.70;;;12.00;71.20;;;;;;5122517;28;20452;-35
2021/03/17 01:18:43;;;;;;;3.50;3.20;;;12.00;69.30;;;;;;5123497;28;20248;-35
2021/03/17 01:21:14;;;;;;;2.87;2.67;;;12.10;69.60;;;;;;5122854;28;20444;-35
2021/03/17 01:23:44;;;;;;;2.70;2.50;;;11.90;72.90;;;;;;5123714;28;20445;-36
2021/03/17 01:26:14;;;;;;;5.30;3.57;;;11.90;72.80;;;;;;5113392;28;20439;-35
2021/03/17 01:28:44;;;;;;;3.40;3.10;;;11.80;75.90;;;;;;5123234;28;20457;-35
2021/03/17 01:31:15;;;;;;;3.43;3.13;;;11.70;74.70;;;;;;5121694;28;20448;-35
2021/03/17 01:33:45;;;;;;;5.70;3.03;;;11.60;75.70;;;;;;5122985;28;20514;-35
2021/03/17 01:36:16;;;;;;;5.90;3.20;;;11.60;74.60;;;;;;5117772;28;20448;-35
2021/03/17 01:38:47;;;;;;;3.37;3.13;;;11.50;74.90;;;;;;5123382;28;20504;-35
2021/03/17 01:41:36;;;;;;;5.67;3.20;;;11.50;79.20;;;;;;5121965;28;20509;-35
2021/03/17 01:44:06;;;;;;;4.37;3.17;;;11.40;80.30;;;;;;5119682;28;20472;-34
2021/03/17 01:46:37;;;;;;;4.30;3.27;;;11.40;77.70;;;;;;5118230;28;20970;-35
2021/03/17 01:49:08;;;;;;;4.35;4.00;;;11.40;78.00;;;;;;5123423;28;20471;-36
2021/03/17 01:51:38;;;;;;;4.50;3.50;;;11.30;79.80;;;;;;5121654;28;20202;-35
2021/03/17 01:54:12;;;;;;;4.10;3.80;;;11.20;81.80;;;;;;5120035;28;20463;-35
2021/03/17 01:56:43;;;;;;;4.77;4.37;;;11.10;80.10;;;;;;5121707;28;20512;-35
2021/03/17 01:59:13;;;;;;;6.90;4.27;;;11.10;82.20;;;;;;5123357;28;20434;-36
2021/03/17 02:01:44;;;;;;;4.47;4.17;;;11.00;82.50;;;;;;5122439;28;20449;-36
2021/03/17 02:04:14;;;;;;;6.23;3.90;;;11.00;85.70;;;;;;5122752;28;20588;-35
2021/03/17 02:06:44;;;;;;;3.97;3.10;;;10.90;88.60;;;;;;5122262;28;20452;-35
2021/03/17 02:09:14;;;;;;;3.80;3.33;;;10.70;91.30;;;;;;5118863;28;20457;-35
2021/03/17 02:11:47;;;;;;;3.60;3.30;;;10.60;90.60;;;;;;5121303;28;20456;-35
2021/03/17 02:14:30;;;;;;;4.60;3.30;;;10.60;91.20;;;;;;5123592;28;20195;-35
2021/03/17 02:17:07;;;;;;;3.78;2.80;;;10.50;91.30;;;;;;5121728;28;20443;-36
2021/03/17 02:20:14;;;;;;;3.40;3.10;;;10.40;91.70;;;;;;5123108;28;20198;-36
2021/03/17 02:22:51;;;;;;;4.38;3.63;;;10.30;93.30;;;;;;5118599;28;20456;-35
2021/03/17 02:25:44;;;;;;;5.30;2.90;;;10.20;93.60;;;;;;5122039;28;20220;-36
2021/03/17 02:28:29;;;;;;;3.70;3.37;;;10.10;95.30;;;;;;5105892;28;20552;-36
2021/03/17 02:31:23;;;;;;;3.88;3.22;;;10.00;95.30;;;;;;5120256;28;20456;-36
2021/03/17 02:33:58;;;;;;;4.38;3.58;;;9.90;97.70;;;;;;5117637;28;20217;-36
2021/03/17 02:36:35;;;;;;;3.60;3.30;;;9.80;99.60;;;;;;5115533;28;20213;-36
2021/03/17 02:39:10;;;;;;;5.05;4.55;;;9.70;99.90;;;;;;5120204;28;20281;-36
2021/03/17 02:41:47;;;;;;;5.83;4.30;;;9.60;96.90;;;;;;5121875;28;20623;-36
2021/03/17 02:44:20;;;;;;;5.10;3.73;;;9.70;96.10;;;;;;5121324;28;20511;-37
2021/03/17 02:46:51;;;;;;;5.07;3.83;;;9.70;99.90;;;;;;5121501;28;20764;-37
2021/03/17 02:49:26;;;;;;;4.93;4.10;;;9.50;99.90;;;;;;5120896;28;20200;-36
2021/03/17 02:52:00;;;;;;;4.85;4.35;;;9.40;99.90;;;;;;5119333;28;20526;-37
2021/03/17 02:54:32;;;;;;;5.20;4.70;;;9.30;99.90;;;;;;5122442;28;20265;-36
2021/03/17 02:57:08;;;;;;;5.03;4.53;;;9.30;99.90;;;;;;5122005;28;20217;-37
2021/03/17 02:59:40;;;;;;;5.90;5.35;;;9.20;99.90;;;;;;5122757;28;20201;-37
2021/03/17 03:02:13;;;;;;;5.47;4.93;;;9.10;99.90;;;;;;5120927;28;20197;-36
2021/03/17 03:04:48;;;;;;;6.13;5.47;;;9.10;99.90;;;;;;5121456;28;20258;-36
2021/03/17 03:07:18;;;;;;;6.30;5.45;;;8.90;99.90;;;;;;5125251;28;20208;-35
2021/03/17 03:09:49;;;;;;;6.40;5.80;;;8.90;99.90;;;;;;5126218;28;20214;-37
2021/03/17 03:12:20;;;;;;;6.93;6.20;;;8.80;99.90;;;;;;5124610;28;20605;-36
2021/03/17 03:14:51;;;;;;;6.97;6.25;;;8.70;99.90;;;;;;5125429;28;20245;-36
2021/03/17 03:17:22;;;;;;;6.93;6.28;;;8.60;99.90;;;;;;5124446;28;20204;-36
2021/03/17 03:19:55;;;;;;;8.00;6.18;;;8.70;99.90;;;;;;5124960;28;20632;-36
2021/03/17 03:22:27;;;;;;;7.80;7.05;;;8.60;99.90;;;;;;5124919;28;20220;-36
2021/03/17 03:24:58;;;;;;;9.15;7.10;;;8.50;99.90;;;;;;5126185;28;20659;-36
2021/03/17 03:27:29;;;;;;;11.55;8.73;;;8.50;99.90;;;;;;5124172;28;20204;-35
2021/03/17 03:30:01;;;;;;;9.13;8.35;;;8.40;99.90;;;;;;5123579;28;20204;-36
2021/03/17 03:32:31;;;;;;;10.00;9.00;;;8.30;99.90;;;;;;5124675;28;20200;-36
2021/03/17 03:35:03;;;;;;;10.60;9.35;;;8.30;99.90;;;;;;5124898;28;20197;-37
2021/03/17 03:37:33;;;;;;;10.90;9.90;;;8.20;99.90;;;;;;5122006;28;20200;-36
2021/03/17 03:40:05;;;;;;;10.88;9.95;;;8.10;99.90;;;;;;5125301;28;20684;-36
2021/03/17 03:42:35;;;;;;;11.38;10.32;;;8.10;99.90;;;;;;5124319;28;20204;-36
2021/03/17 03:45:08;;;;;;;11.07;9.90;;;8.00;99.90;;;;;;5124950;28;20230;-36
2021/03/17 03:47:38;;;;;;;12.65;11.35;;;7.90;99.90;;;;;;5124811;28;20234;-36
2021/03/17 03:50:13;;;;;;;12.10;11.07;;;7.90;99.90;;;;;;5125610;28;20206;-35
2021/03/17 03:52:55;;;;;;;12.15;10.95;;;7.80;99.90;;;;;;5123920;28;20229;-36
2021/03/17 03:55:29;;;;;;;11.52;10.40;;;7.80;99.90;;;;;;5125260;28;20200;-36
2021/03/17 03:58:03;;;;;;;13.07;11.85;;;7.70;99.90;;;;;;5124310;28;20199;-35
2021/03/17 04:00:37;;;;;;;14.02;12.60;;;7.70;99.90;;;;;;5124953;28;20226;-36
2021/03/17 04:03:10;;;;;;;12.80;11.50;;;7.70;99.90;;;;;;5124611;28;20586;-36
2021/03/17 04:05:44;;;;;;;13.20;11.90;;;7.60;99.90;;;;;;5124827;28;20290;-36
2021/03/17 04:08:19;;;;;;;12.75;11.65;;;7.50;99.90;;;;;;5124508;28;20270;-34
2021/03/17 04:10:56;;;;;;;13.20;11.98;;;7.50;99.90;;;;;;5125078;28;20203;-35
2021/03/17 04:13:27;;;;;;;13.10;11.70;;;7.50;99.90;;;;;;5124027;28;20643;-35
2021/03/17 04:15:59;;;;;;;15.68;14.18;;;7.40;99.90;;;;;;5124238;28;20687;-35
2021/03/17 04:18:33;;;;;;;18.58;16.70;;;7.40;99.90;;;;;;5124661;28;20211;-35
2021/03/17 04:21:07;;;;;;;18.17;16.48;;;7.20;99.90;;;;;;5124517;28;20200;-34
2021/03/17 04:23:39;;;;;;;18.48;16.88;;;7.20;99.90;;;;;;5124767;28;20268;-35
2021/03/17 04:26:13;;;;;;;21.33;19.15;;;7.10;99.90;;;;;;5124748;28;20223;-35
2021/03/17 04:28:44;;;;;;;20.92;18.83;;;7.10;99.90;;;;;;5110803;28;20199;-36
2021/03/17 04:31:15;;;;;;;19.73;17.73;;;7.10;99.90;;;;;;5124717;28;20200;-36
2021/03/17 04:33:46;;;;;;;18.95;17.25;;;7.10;99.90;;;;;;5124586;28;20272;-36
2021/03/17 04:36:18;;;;;;;19.05;17.33;;;7.00;99.90;;;;;;5123940;28;20208;-36
2021/03/17 04:38:50;;;;;;;19.42;17.50;;;7.00;99.90;;;;;;5114368;28;20224;-35
2021/03/17 04:41:21;;;;;;;17.58;15.20;;;6.90;99.90;;;;;;5116847;28;20204;-35
2021/03/17 04:43:52;;;;;;;17.40;15.75;;;7.00;99.90;;;;;;5123912;28;20630;-36
2021/03/17 04:46:23;;;;;;;17.77;15.73;;;6.90;99.90;;;;;;5123586;28;20207;-34
2021/03/17 04:48:55;;;;;;;17.95;16.10;;;6.90;99.90;;;;;;5112305;28;20200;-35
2021/03/17 04:51:26;;;;;;;18.52;15.80;;;6.80;99.90;;;;;;5123724;28;20203;-34
2021/03/17 04:53:57;;;;;;;17.73;16.02;;;6.80;99.90;;;;;;5123837;28;20204;-33
2021/03/17 04:56:29;;;;;;;17.75;15.95;;;6.70;99.90;;;;;;5123420;28;20243;-35
2021/03/17 04:59:01;;;;;;;18.42;16.05;;;6.70;99.90;;;;;;5112668;28;20228;-34
2021/03/17 05:01:33;;;;;;;15.93;14.43;;;6.70;99.90;;;;;;5123475;28;20204;-35
2021/03/17 05:04:05;;;;;;;14.95;13.30;;;6.60;99.90;;;;;;5123485;28;20330;-34
2021/03/17 05:06:38;;;;;;;14.07;12.73;;;6.50;99.90;;;;;;5123352;28;20214;-34
2021/03/17 05:09:11;;;;;;;11.40;10.35;;;6.50;99.90;;;;;;5123750;28;20196;-33
2021/03/17 05:11:43;;;;;;;14.77;11.25;;;6.50;99.90;;;;;;5123022;28;20210;-34
2021/03/17 05:14:14;;;;;;;12.10;10.75;;;6.40;99.90;;;;;;5123553;28;20203;-34
2021/03/17 05:16:45;;;;;;;13.85;10.88;;;6.40;99.90;;;;;;5122571;28;20203;-35
2021/03/17 05:19:16;;;;;;;15.07;12.10;;;6.40;99.90;;;;;;5123852;28;20199;-34
2021/03/17 05:21:49;;;;;;;15.02;13.20;;;6.30;99.90;;;;;;5123002;28;20199;-34
2021/03/17 05:24:19;;;;;;;14.60;13.07;;;6.20;99.90;;;;;;5122841;28;20192;-34
2021/03/17 05:26:51;;;;;;;13.20;11.93;;;6.20;99.90;;;;;;5122204;28;20196;-35
2021/03/17 05:29:22;;;;;;;13.30;11.93;;;6.10;99.90;;;;;;5116831;28;20264;-35
2021/03/17 05:31:53;;;;;;;12.45;11.25;;;6.10;99.90;;;;;;5123083;28;20204;-35
2021/03/17 05:34:24;;;;;;;11.15;10.05;;;6.10;99.90;;;;;;5107400;28;20271;-35
2021/03/17 05:36:55;;;;;;;18.70;12.95;;;6.00;99.90;;;;;;5123325;28;20213;-35
2021/03/17 05:39:26;;;;;;;16.08;13.15;;;6.00;99.90;;;;;;5123352;28;20231;-34
2021/03/17 05:41:56;;;;;;;15.95;14.50;;;5.90;99.90;;;;;;5122652;28;20221;-35
2021/03/17 05:44:27;;;;;;;16.63;15.07;;;5.90;99.90;;;;;;5107420;28;20228;-35
2021/03/17 05:46:57;;;;;;;14.90;13.43;;;5.90;99.90;;;;;;5122800;28;20260;-35
2021/03/17 05:49:28;;;;;;;15.30;13.00;;;5.90;99.90;;;;;;5123706;28;20213;-35
2021/03/17 05:52:02;;;;;;;19.23;13.90;;;5.80;99.90;;;;;;5122971;28;20200;-35
2021/03/17 05:54:33;;;;;;;14.38;12.95;;;5.80;99.90;;;;;;5107900;28;20212;-35
2021/03/17 05:57:03;;;;;;;13.82;12.65;;;5.80;99.90;;;;;;5122032;28;20207;-35
2021/03/17 05:59:33;;;;;;;15.45;13.10;;;5.80;99.90;;;;;;5123120;28;20208;-35
2021/03/17 06:02:03;;;;;;;15.25;13.75;;;5.70;99.90;;;;;;5122933;28;20235;-35
2021/03/17 06:04:35;;;;;;;14.55;13.20;;;5.70;99.90;;;;;;5122278;28;20696;-35
2021/03/17 06:07:15;;;;;;;14.65;12.93;;;5.60;99.90;;;;;;5122569;28;20203;-34
2021/03/17 06:09:47;;;;;;;12.50;11.25;;;5.70;99.90;;;;;;5123522;28;20248;-35
2021/03/17 06:12:21;;;;;;;16.38;12.75;;;5.60;99.90;;;;;;5121477;28;20204;-35
2021/03/17 06:14:53;;;;;;;13.13;11.82;;;5.50;99.90;;;;;;5122135;28;20204;-35
2021/03/17 06:17:26;;;;;;;14.60;12.63;;;5.50;99.90;;;;;;5122677;28;20265;-35
2021/03/17 06:20:02;;;;;;;13.52;12.07;;;5.50;99.90;;;;;;5123077;28;20268;-35
2021/03/17 06:22:34;;;;;;;14.60;13.10;;;5.40;99.90;;;;;;5122120;28;20218;-35
2021/03/17 06:25:07;;;;;;;13.07;11.77;;;5.40;99.90;;;;;;5122899;28;20243;-35
2021/03/17 06:27:39;;;;;;;13.82;12.50;;;5.30;99.90;;;;;;5122177;28;20196;-35
2021/03/17 06:30:11;;;;;;;12.63;11.43;;;5.40;99.90;;;;;;5122863;28;20208;-35
2021/03/17 06:32:41;;;;;;;14.10;12.27;;;5.30;99.90;;;;;;5122606;28;20309;-35
2021/03/17 06:35:19;;;;;;;12.98;11.35;;;5.30;99.90;;;;;;5122530;28;20300;-35
2021/03/17 06:37:54;;;;;;;14.93;12.65;;;5.30;99.90;;;;;;5122223;28;20306;-35
2021/03/17 06:40:27;;;;;;;13.77;12.38;;;5.30;99.90;;;;;;5122188;28;20235;-34
2021/03/17 06:43:05;;;;;;;13.43;12.10;;;5.20;99.90;;;;;;5125944;28;20261;-34
2021/03/17 06:45:38;;;;;;;15.18;11.45;;;5.20;99.90;;;;;;5126049;28;20235;-34
2021/03/17 06:48:25;;;;;;;13.50;12.23;;;5.10;99.90;;;;;;5125877;28;20204;-34
2021/03/17 06:51:11;;;;;;;13.25;12.05;;;5.10;99.90;;;;;;5126500;28;20214;-35
2021/03/17 06:53:45;;;;;;;13.30;12.00;;;5.10;99.90;;;;;;5126533;28;20203;-35
2021/03/17 06:56:18;;;;;;;13.57;12.18;;;5.00;99.90;;;;;;5124547;28;20204;-35
2021/03/17 06:58:49;;;;;;;17.88;11.55;;;5.00;99.90;;;;;;5126203;28;20272;-34
2021/03/17 07:01:27;;;;;;;13.52;12.13;;;4.90;99.90;;;;;;5126162;28;20245;-34
2021/03/17 07:03:59;;;;;;;13.55;11.90;;;4.80;99.90;;;;;;5125824;28;20273;-35
2021/03/17 07:06:29;;;;;;;13.80;12.30;;;4.80;99.90;;;;;;5125380;28;20228;-35
2021/03/17 07:09:14;;;;;;;15.35;12.27;;;4.80;99.90;;;;;;5125911;28;20204;-34
2021/03/17 07:11:45;;;;;;;12.70;11.38;;;4.80;99.90;;;;;;5125018;28;20344;-35
2021/03/17 07:14:23;;;;;;;11.75;10.65;;;4.80;99.90;;;;;;5125946;28;20298;-35
2021/03/17 07:16:54;;;;;;;14.27;12.05;;;4.80;99.90;;;;;;5124657;28;20210;-34
2021/03/17 07:19:34;;;;;;;14.15;11.60;;;4.70;99.90;;;;;;5126461;28;20214;-35
2021/03/17 07:22:06;;;;;;;12.32;10.73;;;4.70;99.90;;;;;;5123203;28;20223;-35
2021/03/17 07:24:39;;;;;;;15.52;11.82;;;4.70;99.90;;;;;;5125668;28;20687;-34
2021/03/17 07:27:17;;;;;;;13.02;11.23;;;4.60;99.90;;;;;;5124181;28;20200;-35
2021/03/17 07:30:12;;;;;;;13.73;12.32;;;4.60;99.90;;;;;;5125556;28;20206;-34
2021/03/17 07:32:57;;;;;;;15.00;11.13;;;4.70;99.90;;;;;;5118267;28;20250;-35
2021/03/17 07:35:29;;;;;;;13.90;11.00;;;4.50;99.90;;;;;;5124952;28;21472;-34
2021/03/17 07:38:07;;;;;;;13.20;11.60;;;4.50;99.90;;;;;;5125257;28;20202;-35
2021/03/17 07:40:40;;;;;;;13.38;11.32;;;4.40;99.90;;;;;;5125998;28;20227;-35
2021/03/17 07:43:11;;;;;;;15.10;12.27;;;4.40;99.90;;;;;;5124273;28;20210;-35
2021/03/17 07:45:42;;;;;;;13.80;12.05;;;4.40;99.90;;;;;;5124749;28;20231;-35
2021/03/17 07:48:13;;;;;;;14.68;13.18;;;4.40;99.90;;;;;;5124737;28;20243;-35
2021/03/17 07:50:45;;;;;;;13.60;12.10;;;4.40;99.90;;;;;;5124667;28;20214;-35
2021/03/17 07:53:22;;;;;;;16.50;13.27;;;4.40;99.90;;;;;;5125058;28;20485;-35
2021/03/17 07:55:56;;;;;;;13.70;12.38;;;4.30;99.90;;;;;;5125021;28;20199;-35
2021/03/17 07:58:27;;;;;;;13.00;11.65;;;4.30;99.90;;;;;;5117831;28;20563;-35
2021/03/17 08:00:57;;;;;;;13.65;12.13;;;4.30;99.90;;;;;;5125022;28;20200;-35
2021/03/17 08:03:30;;;;;;;13.95;10.10;;;4.20;99.90;;;;;;5124839;28;20196;-35
2021/03/17 08:06:02;;;;;;;21.02;11.73;;;4.20;99.90;;;;;;5124539;28;20548;-35
2021/03/17 08:08:34;;;;;;;18.42;12.55;;;4.20;99.90;;;;;;5124886;28;20200;-35
2021/03/17 08:11:06;;;;;;;12.10;10.82;;;4.20;99.90;;;;;;5125255;28;20200;-35
2021/03/17 08:13:36;;;;;;;13.30;12.02;;;4.10;99.90;;;;;;5118575;28;20223;-35
2021/03/17 08:16:08;;;;;;;14.18;11.88;;;4.00;99.90;;;;;;5124494;28;20204;-35
2021/03/17 08:18:46;;;;;;;14.07;12.57;;;4.00;99.90;;;;;;5124566;28;20265;-35
2021/03/17 08:21:32;;;;;;;12.60;11.30;;;4.10;99.90;;;;;;5115778;28;20257;-34
2021/03/17 08:24:02;;;;;;;13.73;12.32;;;4.10;99.90;;;;;;5124567;28;20203;-34
2021/03/17 08:26:48;;;;;;;14.75;11.85;;;4.00;99.90;;;;;;5123535;28;20295;-35
2021/03/17 08:29:18;;;;;;;13.63;12.30;;;3.90;99.90;;;;;;5124705;28;20200;-35
2021/03/17 08:31:55;;;;;;;15.15;12.50;;;3.90;99.90;;;;;;5124466;28;20211;-35
2021/03/17 08:34:29;;;;;;;15.40;11.98;;;3.90;99.90;;;;;;5108514;28;20279;-35
2021/03/17 08:37:01;;;;;;;15.95;11.80;;;3.80;99.90;;;;;;5123722;28;20261;-34
2021/03/17 08:39:43;;;;;;;14.25;12.85;;;3.90;99.90;;;;;;5123909;28;20231;-33
2021/03/17 08:42:28;;;;;;;14.27;12.75;;;3.90;99.90;;;;;;5123293;28;20585;-33
2021/03/17 08:45:00;;;;;;;16.20;12.68;;;3.90;99.90;;;;;;5124683;28;20255;-34
2021/03/17 08:47:33;;;;;;;15.18;13.60;;;3.80;99.90;;;;;;5123834;28;20207;-34
2021/03/17 08:50:18;;;;;;;15.77;14.10;;;3.70;99.90;;;;;;5124185;28;20216;-34
2021/03/17 08:52:50;;;;;;;17.02;13.10;;;3.80;99.90;;;;;;5123919;28;20283;-34
2021/03/17 08:55:21;;;;;;;15.40;12.80;;;3.80;99.90;;;;;;5124331;28;20214;-33
2021/03/17 08:58:06;;;;;;;15.80;14.20;;;3.70;99.90;;;;;;5122861;28;20679;-35
2021/03/17 09:00:56;;;;;;;15.50;13.38;;;3.70;99.90;;;;;;5123873;28;20202;-34
2021/03/17 09:03:53;;;;;;;14.02;12.52;;;3.70;99.90;;;;;;5123761;28;20199;-33
2021/03/17 09:06:29;;;;;;;16.05;13.93;;;3.70;99.90;;;;;;5121977;28;20219;-35
2021/03/17 09:09:04;;;;;;;15.77;12.63;;;3.70;99.90;;;;;;5124240;28;20203;-35
2021/03/17 09:11:52;;;;;;;14.43;12.63;;;3.70;99.90;;;;;;5123131;28;20227;-35
2021/03/17 09:14:30;;;;;;;15.95;13.10;;;3.60;99.90;;;;;;5116987;28;20217;-34
2021/03/17 09:17:18;;;;;;;15.48;13.15;;;3.50;99.90;;;;;;5122798;28;20215;-35
2021/03/17 09:20:10;;;;;;;15.48;13.18;;;3.50;99.90;;;;;;5123787;28;20192;-35
2021/03/17 09:22:45;;;;;;;14.25;12.80;;;3.50;99.90;;;;;;5116073;28;20196;-35
2021/03/17 09:25:22;;;;;;;16.17;13.25;;;3.40;99.90;;;;;;5122977;28;20235;-35
2021/03/17 09:27:55;;;;;;;15.50;13.52;;;3.40;99.90;;;;;;5121577;28;20207;-33
2021/03/17 09:30:27;;;;;;;15.88;14.27;;;3.40;99.90;;;;;;5119457;28;20196;-34
2021/03/17 09:33:06;;;;;;;14.52;13.00;;;3.30;99.90;;;;;;5123293;28;20313;-34
2021/03/17 09:35:38;;;;;;;15.85;13.75;;;3.30;99.90;;;;;;5123373;28;20214;-34
2021/03/17 09:38:10;;;;;;;16.58;14.95;;;3.40;99.90;;;;;;5122553;28;20200;-34
2021/03/17 09:41:00;;;;;;;17.23;15.45;;;3.30;99.90;;;;;;5123636;28;20227;-34
2021/03/17 09:43:39;;;;;;;15.32;13.75;;;3.30;99.90;;;;;;5115651;28;20208;-34
2021/03/17 09:46:31;;;;;;;16.15;14.45;;;3.30;99.90;;;;;;5123134;28;20688;-34
2021/03/17 09:49:05;;;;;;;17.75;14.45;;;3.20;99.90;;;;;;5123519;28;20204;-35
2021/03/17 09:51:37;;;;;;;16.10;14.55;;;3.20;99.90;;;;;;5123571;28;20557;-35
2021/03/17 09:54:09;;;;;;;20.75;15.57;;;3.10;99.90;;;;;;5123314;28;20208;-34
2021/03/17 09:56:45;;;;;;;16.65;14.90;;;3.00;99.90;;;;;;5122204;28;20256;-35
2021/03/17 09:59:20;;;;;;;16.20;14.43;;;3.00;99.90;;;;;;5122994;28;20223;-35
2021/03/17 10:02:00;;;;;;;17.98;15.63;;;3.00;99.90;;;;;;5123392;28;20213;-34
2021/03/17 10:04:33;;;;;;;16.02;14.48;;;3.00;99.90;;;;;;5120725;28;20196;-35
2021/03/17 10:07:05;;;;;;;17.45;14.52;;;3.00;99.90;;;;;;5123085;28;20239;-35
2021/03/17 10:09:36;;;;;;;17.25;15.18;;;3.00;99.90;;;;;;5117119;28;20224;-35
2021/03/17 10:12:09;;;;;;;17.02;14.50;;;3.00;99.90;;;;;;5122366;28;20208;-34
2021/03/17 10:14:40;;;;;;;16.95;15.25;;;3.00;99.90;;;;;;5127403;28;20205;-36
2021/03/17 10:17:12;;;;;;;24.63;15.45;;;2.90;99.90;;;;;;5126972;28;20214;-35
2021/03/17 10:19:42;;;;;;;17.13;15.18;;;3.00;99.90;;;;;;5127078;28;20200;-35
2021/03/17 10:22:12;;;;;;;17.00;15.38;;;3.00;99.90;;;;;;5126668;28;20221;-36
2021/03/17 10:24:45;;;;;;;18.35;16.15;;;2.90;99.90;;;;;;5127271;28;20208;-35
2021/03/17 10:27:16;;;;;;;17.25;15.23;;;2.90;99.90;;;;;;5126930;28;20255;-35
2021/03/17 10:29:49;;;;;;;17.63;14.23;;;2.90;99.90;;;;;;5127606;28;20219;-34
2021/03/17 10:32:22;;;;;;;16.80;15.05;;;2.90;99.90;;;;;;5126785;28;20200;-34
2021/03/17 10:34:53;;;;;;;17.85;15.70;;;2.80;99.90;;;;;;5127189;28;20340;-33
2021/03/17 10:37:24;;;;;;;18.33;15.05;;;2.90;99.90;;;;;;5127274;28;20226;-34
2021/03/17 10:39:55;;;;;;;19.02;15.90;;;2.80;99.90;;;;;;5126655;28;20679;-35
2021/03/17 10:42:27;;;;;;;17.35;15.55;;;2.80;99.90;;;;;;5109972;28;20199;-35
2021/03/17 10:45:07;;;;;;;17.73;15.93;;;2.80;99.90;;;;;;5127011;28;20200;-35
2021/03/17 10:47:40;;;;;;;21.05;16.35;;;2.80;99.90;;;;;;5125902;28;20207;-34
2021/03/17 10:50:12;;;;;;;19.58;16.13;;;2.80;99.90;;;;;;5126472;28;20218;-35
2021/03/17 10:52:44;;;;;;;23.58;15.43;;;2.70;99.90;;;;;;5127232;28;20229;-35
2021/03/17 10:55:23;;;;;;;17.90;15.75;;;2.70;99.90;;;;;;5126520;28;20264;-35
2021/03/17 10:57:54;;;;;;;19.05;15.40;;;2.70;99.90;;;;;;5121248;28;20231;-35
2021/03/17 11:00:27;;;;;;;20.02;16.35;;;2.70;99.90;;;;;;5110761;28;20207;-34
2021/03/17 11:02:59;;;;;;;17.42;15.57;;;2.60;99.90;;;;;;5125977;28;20257;-35
2021/03/17 11:05:34;;;;;;;19.02;15.32;;;2.60;99.90;;;;;;5126299;28;20258;-34
2021/03/17 11:08:13;;;;;;;17.15;15.30;;;2.50;99.90;;;;;;5123567;28;20191;-36
2021/03/17 11:10:56;;;;;;;20.27;16.85;;;2.50;99.90;;;;;;5126766;28;20724;-35
2021/03/17 11:13:31;;;;;;;18.85;16.45;;;2.60;99.90;;;;;;5125382;28;20257;-35
2021/03/17 11:16:06;;;;;;;21.35;17.58;;;2.60;99.90;;;;;;5122998;28;20226;-35
2021/03/17 11:18:45;;;;;;;18.50;16.25;;;2.60;99.90;;;;;;5125761;28;20203;-35
2021/03/17 11:21:23;;;;;;;17.08;15.27;;;2.50;99.90;;;;;;5125526;28;20208;-34
2021/03/17 11:23:55;;;;;;;20.00;16.85;;;2.40;99.90;;;;;;5121735;28;20260;-34
2021/03/17 11:26:28;;;;;;;18.38;16.30;;;2.50;99.90;;;;;;5113731;28;20224;-35
2021/03/17 11:29:02;;;;;;;21.00;16.48;;;2.50;99.90;;;;;;5125830;28;20573;-35
2021/03/17 11:31:34;;;;;;;18.08;16.33;;;2.50;99.90;;;;;;5125443;28;20208;-35
2021/03/17 11:34:09;;;;;;;20.58;16.80;;;2.50;99.90;;;;;;5125574;28;20211;-35
2021/03/17 11:36:39;;;;;;;18.65;16.70;;;2.50;99.90;;;;;;5125311;28;20204;-35
2021/03/17 11:39:13;;;;;;;18.95;16.83;;;2.50;99.90;;;;;;5125102;28;20311;-34
2021/03/17 11:41:44;;;;;;;18.80;16.70;;;2.50;99.90;;;;;;5124464;28;20207;-34
2021/03/17 11:44:17;;;;;;;19.80;17.25;;;2.50;99.90;;;;;;5125905;28;20210;-35
2021/03/17 11:46:47;;;;;;;22.83;18.70;;;2.40;99.90;;;;;;5124906;28;20670;-35
2021/03/17 11:49:20;;;;;;;19.67;16.83;;;2.50;99.90;;;;;;5125181;28;20218;-35
2021/03/17 11:51:50;;;;;;;20.95;17.15;;;2.40;99.90;;;;;;5124723;28;20203;-35
2021/03/17 11:54:20;;;;;;;20.48;16.63;;;2.40;99.90;;;;;;5125084;28;20200;-34
2021/03/17 11:56:50;;;;;;;20.42;17.35;;;2.30;99.90;;;;;;5124576;28;20203;-34
2021/03/17 11:59:20;;;;;;;21.10;16.77;;;2.40;99.90;;;;;;5125477;28;20210;-35
2021/03/17 12:01:50;;;;;;;21.33;18.17;;;2.40;99.90;;;;;;5124553;28;20260;-35
2021/03/17 12:04:22;;;;;;;19.77;17.27;;;2.30;99.90;;;;;;5110266;28;20207;-35
2021/03/17 12:06:52;;;;;;;18.42;16.50;;;2.30;99.90;;;;;;5124713;28;20228;-35
2021/03/17 12:09:22;;;;;;;20.25;17.02;;;2.30;99.90;;;;;;5125055;28;20200;-35
2021/03/17 12:11:52;;;;;;;20.60;18.40;;;2.20;99.90;;;;;;5124257;28;20204;-35
2021/03/17 12:14:22;;;;;;;19.48;16.52;;;2.20;99.90;;;;;;5117220;28;20211;-35
2021/03/17 12:16:52;;;;;;;21.23;18.08;;;2.10;99.90;;;;;;5124099;28;20208;-35
2021/03/17 12:19:24;;;;;;;19.25;17.00;;;2.10;99.90;;;;;;5124671;28;20634;-34
2021/03/17 12:21:54;;;;;;;19.45;16.83;;;2.20;99.90;;;;;;5124760;28;20218;-35
2021/03/17 12:24:24;;;;;;;20.10;18.00;;;2.20;99.90;;;;;;5115124;28;20256;-33
2021/03/17 12:26:54;;;;;;;20.92;17.55;;;2.20;99.90;;;;;;5124008;28;20236;-35
2021/03/17 12:29:24;;;;;;;21.85;16.55;;;2.30;99.90;;;;;;5124110;28;20231;-35
2021/03/17 12:31:54;;;;;;;21.30;18.38;;;2.10;99.90;;;;;;5123657;28;20200;-35
2021/03/17 12:34:28;;;;;;;25.13;17.60;;;2.10;99.90;;;;;;5108652;28;20211;-35
2021/03/17 12:36:58;;;;;;;20.98;18.42;;;2.20;99.90;;;;;;5117278;28;20253;-35
2021/03/17 12:39:29;;;;;;;24.20;18.65;;;2.20;99.90;;;;;;5124115;28;20224;-35
2021/03/17 12:41:59;;;;;;;21.20;17.48;;;2.20;99.90;;;;;;5122918;28;20268;-34
2021/03/17 12:44:29;;;;;;;29.35;19.55;;;2.20;99.90;;;;;;5124352;28;20632;-34
2021/03/17 12:47:00;;;;;;;22.25;19.13;;;2.30;99.90;;;;;;5123947;28;20280;-35
2021/03/17 12:49:32;;;;;;;22.55;20.15;;;2.30;99.90;;;;;;5124169;28;20235;-34
2021/03/17 12:52:02;;;;;;;21.27;18.20;;;2.30;99.90;;;;;;5124106;28;20212;-35
2021/03/17 12:54:32;;;;;;;24.60;18.92;;;2.20;99.90;;;;;;5124441;28;20203;-35
2021/03/17 12:57:03;;;;;;;22.85;18.88;;;2.10;99.90;;;;;;5123127;28;20215;-35
2021/03/17 12:59:33;;;;;;;23.83;18.80;;;2.00;99.90;;;;;;5123780;28;20208;-34
2021/03/17 13:02:03;;;;;;;20.80;18.38;;;2.10;99.90;;;;;;5123584;28;20204;-35
2021/03/17 13:04:34;;;;;;;23.73;20.33;;;2.10;99.90;;;;;;5124285;28;20348;-35
2021/03/17 13:07:05;;;;;;;23.65;20.45;;;2.10;99.90;;;;;;5123516;28;20277;-35
2021/03/17 13:09:34;;;;;;;20.63;18.33;;;2.10;99.90;;;;;;5123812;28;20253;-35
2021/03/17 13:12:06;;;;;;;19.73;17.17;;;2.10;99.90;;;;;;5122741;28;20200;-35